TAF and METAR

METAR for Snorre A Oil Platform

ENSE 020220Z AUTO 20041KT 9999NDV OVC016/// 09/06 Q1010 W///S6
Report created 2. des 03:20
report generated by an automatic observation system. wind 41 knots from SSW (200°) visibility > 10km overcast at 1600 feet Temperature 9° with dewpoint at 6° (Humidity 81.48%) Pressure 1010 hPa
No TAF available for Snorre A Oil Platform
Snorre A Oil Platform in Norway at 10m

Latest 5 airports